sensor_id;sensor_type;location;lat;lon;timestamp;temperature;humidity
27745;DHT22;61387;48.112;8.616;2023-03-01T00:01:05;-4.60;99.90
27745;DHT22;61387;48.112;8.616;2023-03-01T00:03:31;-4.60;99.90
27745;DHT22;61387;48.112;8.616;2023-03-01T00:05:57;-4.60;99.90
27745;DHT22;61387;48.112;8.616;2023-03-01T00:08:23;-4.70;99.90
27745;DHT22;61387;48.112;8.616;2023-03-01T00:10:48;-4.80;99.90
27745;DHT22;61387;48.112;8.616;2023-03-01T00:13:14;-4.80;99.90
27745;DHT22;61387;48.112;8.616;2023-03-01T00:15:40;-4.80;99.90
27745;DHT22;61387;48.112;8.616;2023-03-01T00:20:33;-4.90;99.90
27745;DHT22;61387;48.112;8.616;2023-03-01T00:22:59;-4.90;99.90
27745;DHT22;61387;48.112;8.616;2023-03-01T00:25:24;-5.00;99.90
27745;DHT22;61387;48.112;8.616;2023-03-01T00:27:50;-5.00;99.90
27745;DHT22;61387;48.112;8.616;2023-03-01T00:30:16;-5.00;99.90
27745;DHT22;61387;48.112;8.616;2023-03-01T00:35:07;-5.10;99.90
27745;DHT22;61387;48.112;8.616;2023-03-01T00:37:33;-5.10;99.90
27745;DHT22;61387;48.112;8.616;2023-03-01T00:39:58;-5.10;99.90
27745;DHT22;61387;48.112;8.616;2023-03-01T00:47:16;-5.10;99.90
27745;DHT22;61387;48.112;8.616;2023-03-01T00:49:41;-5.00;99.90
27745;DHT22;61387;48.112;8.616;2023-03-01T00:52:07;-5.00;99.90
27745;DHT22;61387;48.112;8.616;2023-03-01T00:56:58;-4.90;99.90
27745;DHT22;61387;48.112;8.616;2023-03-01T01:01:50;-4.80;99.90
27745;DHT22;61387;48.112;8.616;2023-03-01T01:04:15;-4.80;99.90
27745;DHT22;61387;48.112;8.616;2023-03-01T01:06:43;-4.70;99.90
27745;DHT22;61387;48.112;8.616;2023-03-01T01:09:11;-4.60;99.90
27745;DHT22;61387;48.112;8.616;2023-03-01T01:11:45;-4.60;99.90
27745;DHT22;61387;48.112;8.616;2023-03-01T01:14:11;-4.60;99.90
27745;DHT22;61387;48.112;8.616;2023-03-01T01:19:03;-4.50;99.90
27745;DHT22;61387;48.112;8.616;2023-03-01T01:21:29;-4.50;99.90
27745;DHT22;61387;48.112;8.616;2023-03-01T01:23:56;-4.40;99.90
27745;DHT22;61387;48.112;8.616;2023-03-01T01:26:25;-4.30;99.90
27745;DHT22;61387;48.112;8.616;2023-03-01T01:28:51;-4.30;99.90
27745;DHT22;61387;48.112;8.616;2023-03-01T01:31:18;-4.30;99.90
27745;DHT22;61387;48.112;8.616;2023-03-01T01:33:45;-4.20;99.90
27745;DHT22;61387;48.112;8.616;2023-03-01T01:36:11;-4.20;99.90
27745;DHT22;61387;48.112;8.616;2023-03-01T01:38:37;-4.10;99.90
27745;DHT22;61387;48.112;8.616;2023-03-01T01:41:03;-4.10;99.90
27745;DHT22;61387;48.112;8.616;2023-03-01T01:43:33;-4.10;99.90
27745;DHT22;61387;48.112;8.616;2023-03-01T01:48:41;-4.00;99.90
27745;DHT22;61387;48.112;8.616;2023-03-01T01:51:20;-4.00;99.90
27745;DHT22;61387;48.112;8.616;2023-03-01T01:53:52;-3.90;99.90
27745;DHT22;61387;48.112;8.616;2023-03-01T01:56:18;-3.80;99.90
27745;DHT22;61387;48.112;8.616;2023-03-01T01:58:45;-3.60;99.90
27745;DHT22;61387;48.112;8.616;2023-03-01T02:01:12;-3.50;99.90
27745;DHT22;61387;48.112;8.616;2023-03-01T02:03:39;-3.30;99.90
27745;DHT22;61387;48.112;8.616;2023-03-01T02:06:26;-3.30;99.90
27745;DHT22;61387;48.112;8.616;2023-03-01T02:08:59;-3.10;99.90
27745;DHT22;61387;48.112;8.616;2023-03-01T02:11:26;-3.00;99.90
27745;DHT22;61387;48.112;8.616;2023-03-01T02:13:54;-3.00;99.90
27745;DHT22;61387;48.112;8.616;2023-03-01T02:16:20;-2.90;99.90
27745;DHT22;61387;48.112;8.616;2023-03-01T02:18:46;-2.80;99.90
27745;DHT22;61387;48.112;8.616;2023-03-01T02:21:17;-2.80;99.90
27745;DHT22;61387;48.112;8.616;2023-03-01T02:23:45;-2.70;99.90
27745;DHT22;61387;48.112;8.616;2023-03-01T02:26:33;-2.70;99.90
27745;DHT22;61387;48.112;8.616;2023-03-01T02:29:00;-2.70;99.90
27745;DHT22;61387;48.112;8.616;2023-03-01T02:31:26;-2.70;99.90
27745;DHT22;61387;48.112;8.616;2023-03-01T02:34:09;-2.70;99.90
27745;DHT22;61387;48.112;8.616;2023-03-01T02:36:39;-2.70;99.90
27745;DHT22;61387;48.112;8.616;2023-03-01T02:39:06;-2.70;99.90
27745;DHT22;61387;48.112;8.616;2023-03-01T02:41:35;-2.60;99.90
27745;DHT22;61387;48.112;8.616;2023-03-01T02:44:03;-2.60;99.90
27745;DHT22;61387;48.112;8.616;2023-03-01T02:46:28;-2.60;99.90
27745;DHT22;61387;48.112;8.616;2023-03-01T02:48:56;-2.60;99.90
27745;DHT22;61387;48.112;8.616;2023-03-01T02:51:52;-2.60;99.90
27745;DHT22;61387;48.112;8.616;2023-03-01T02:54:31;-2.50;99.90
27745;DHT22;61387;48.112;8.616;2023-03-01T02:56:59;-2.40;99.90
27745;DHT22;61387;48.112;8.616;2023-03-01T02:59:27;-2.40;99.90
27745;DHT22;61387;48.112;8.616;2023-03-01T03:01:54;-2.40;99.90
27745;DHT22;61387;48.112;8.616;2023-03-01T03:04:20;-2.30;99.90
27745;DHT22;61387;48.112;8.616;2023-03-01T03:06:48;-2.40;99.90
27745;DHT22;61387;48.112;8.616;2023-03-01T03:09:15;-2.40;99.90
27745;DHT22;61387;48.112;8.616;2023-03-01T03:11:41;-2.40;99.90
27745;DHT22;61387;48.112;8.616;2023-03-01T03:14:09;-2.40;99.90
27745;DHT22;61387;48.112;8.616;2023-03-01T03:16:49;-2.50;99.90
27745;DHT22;61387;48.112;8.616;2023-03-01T03:19:16;-2.50;99.90
27745;DHT22;61387;48.112;8.616;2023-03-01T03:21:42;-2.50;99.90
27745;DHT22;61387;48.112;8.616;2023-03-01T03:24:08;-2.50;99.90
27745;DHT22;61387;48.112;8.616;2023-03-01T03:26:33;-2.50;99.90
27745;DHT22;61387;48.112;8.616;2023-03-01T03:28:59;-2.40;99.90
27745;DHT22;61387;48.112;8.616;2023-03-01T03:31:24;-2.40;99.90
27745;DHT22;61387;48.112;8.616;2023-03-01T03:33:50;-2.40;99.90
27745;DHT22;61387;48.112;8.616;2023-03-01T03:36:22;-2.30;99.90
27745;DHT22;61387;48.112;8.616;2023-03-01T03:38:48;-2.20;99.90
27745;DHT22;61387;48.112;8.616;2023-03-01T03:41:14;-2.20;99.90
27745;DHT22;61387;48.112;8.616;2023-03-01T03:43:41;-2.30;99.90
27745;DHT22;61387;48.112;8.616;2023-03-01T03:46:10;-2.20;99.90
27745;DHT22;61387;48.112;8.616;2023-03-01T03:48:38;-2.10;99.90
27745;DHT22;61387;48.112;8.616;2023-03-01T03:53:33;-2.10;99.90
27745;DHT22;61387;48.112;8.616;2023-03-01T04:00:54;-2.30;99.90
27745;DHT22;61387;48.112;8.616;2023-03-01T04:03:22;-2.20;99.90
27745;DHT22;61387;48.112;8.616;2023-03-01T04:05:48;-2.20;99.90
27745;DHT22;61387;48.112;8.616;2023-03-01T04:08:16;-2.10;99.90
27745;DHT22;61387;48.112;8.616;2023-03-01T04:10:46;-2.10;99.90
27745;DHT22;61387;48.112;8.616;2023-03-01T04:13:15;-2.10;99.90
27745;DHT22;61387;48.112;8.616;2023-03-01T04:15:41;-2.10;99.90
27745;DHT22;61387;48.112;8.616;2023-03-01T04:18:12;-2.00;99.90
27745;DHT22;61387;48.112;8.616;2023-03-01T04:20:38;-2.00;99.90
27745;DHT22;61387;48.112;8.616;2023-03-01T04:23:10;-1.80;99.90
27745;DHT22;61387;48.112;8.616;2023-03-01T04:25:40;-1.90;99.90
27745;DHT22;61387;48.112;8.616;2023-03-01T04:28:06;-1.90;99.90
27745;DHT22;61387;48.112;8.616;2023-03-01T04:30:32;-1.90;99.90
27745;DHT22;61387;48.112;8.616;2023-03-01T04:35:27;-1.90;99.90
27745;DHT22;61387;48.112;8.616;2023-03-01T04:42:46;-1.90;99.90
27745;DHT22;61387;48.112;8.616;2023-03-01T04:45:12;-1.90;99.90
27745;DHT22;61387;48.112;8.616;2023-03-01T04:47:42;-2.00;99.90
27745;DHT22;61387;48.112;8.616;2023-03-01T04:50:10;-2.00;99.90
27745;DHT22;61387;48.112;8.616;2023-03-01T04:52:36;-1.90;99.90
27745;DHT22;61387;48.112;8.616;2023-03-01T04:55:02;-2.00;99.90
27745;DHT22;61387;48.112;8.616;2023-03-01T04:59:54;-2.00;99.90
27745;DHT22;61387;48.112;8.616;2023-03-01T05:04:46;-1.90;99.90
27745;DHT22;61387;48.112;8.616;2023-03-01T05:07:11;-1.90;99.90
27745;DHT22;61387;48.112;8.616;2023-03-01T05:12:04;-1.90;99.90
27745;DHT22;61387;48.112;8.616;2023-03-01T05:14:30;-1.90;99.90
27745;DHT22;61387;48.112;8.616;2023-03-01T05:16:55;-2.00;99.90
27745;DHT22;61387;48.112;8.616;2023-03-01T05:19:29;-2.00;99.90
27745;DHT22;61387;48.112;8.616;2023-03-01T05:21:56;-2.00;99.90
27745;DHT22;61387;48.112;8.616;2023-03-01T05:24:31;-2.00;99.90
27745;DHT22;61387;48.112;8.616;2023-03-01T05:26:57;-1.90;99.90
27745;DHT22;61387;48.112;8.616;2023-03-01T05:29:24;-1.90;99.90
27745;DHT22;61387;48.112;8.616;2023-03-01T05:31:57;-1.90;99.90
27745;DHT22;61387;48.112;8.616;2023-03-01T05:34:24;-1.80;99.90
27745;DHT22;61387;48.112;8.616;2023-03-01T05:36:51;-1.90;99.90
27745;DHT22;61387;48.112;8.616;2023-03-01T05:41:44;-1.90;99.90
27745;DHT22;61387;48.112;8.616;2023-03-01T05:49:03;-1.90;99.90
27745;DHT22;61387;48.112;8.616;2023-03-01T05:58:48;-1.90;99.90
27745;DHT22;61387;48.112;8.616;2023-03-01T06:06:06;-1.90;99.90
27745;DHT22;61387;48.112;8.616;2023-03-01T06:08:32;-2.00;99.90
27745;DHT22;61387;48.112;8.616;2023-03-01T06:10:57;-2.00;99.90
27745;DHT22;61387;48.112;8.616;2023-03-01T06:13:23;-1.90;99.90
27745;DHT22;61387;48.112;8.616;2023-03-01T06:18:15;-1.90;99.90
27745;DHT22;61387;48.112;8.616;2023-03-01T06:20:40;-1.90;99.90
27745;DHT22;61387;48.112;8.616;2023-03-01T06:25:32;-1.90;99.90
27745;DHT22;61387;48.112;8.616;2023-03-01T06:30:25;-2.00;99.90
27745;DHT22;61387;48.112;8.616;2023-03-01T06:32:51;-1.90;99.90
27745;DHT22;61387;48.112;8.616;2023-03-01T06:35:18;-1.90;99.90
27745;DHT22;61387;48.112;8.616;2023-03-01T06:37:45;-1.80;99.90
27745;DHT22;61387;48.112;8.616;2023-03-01T06:40:12;-1.90;99.90
27745;DHT22;61387;48.112;8.616;2023-03-01T06:42:40;-1.90;99.90
27745;DHT22;61387;48.112;8.616;2023-03-01T06:45:08;-1.90;99.90
27745;DHT22;61387;48.112;8.616;2023-03-01T06:47:34;-1.80;99.90
27745;DHT22;61387;48.112;8.616;2023-03-01T06:50:00;-1.90;99.90
27745;DHT22;61387;48.112;8.616;2023-03-01T06:52:26;-1.80;99.90
27745;DHT22;61387;48.112;8.616;2023-03-01T06:54:51;-1.90;99.90
27745;DHT22;61387;48.112;8.616;2023-03-01T06:57:17;-1.80;99.90
27745;DHT22;61387;48.112;8.616;2023-03-01T07:02:13;-1.90;99.90
27745;DHT22;61387;48.112;8.616;2023-03-01T07:07:05;-1.80;99.90
27745;DHT22;61387;48.112;8.616;2023-03-01T07:09:31;-1.90;99.90
27745;DHT22;61387;48.112;8.616;2023-03-01T07:11:57;-1.90;99.90
27745;DHT22;61387;48.112;8.616;2023-03-01T07:14:23;-1.80;99.90
27745;DHT22;61387;48.112;8.616;2023-03-01T07:16:52;-1.70;99.90
27745;DHT22;61387;48.112;8.616;2023-03-01T07:21:44;-1.80;99.90
27745;DHT22;61387;48.112;8.616;2023-03-01T07:24:10;-1.70;99.90
27745;DHT22;61387;48.112;8.616;2023-03-01T07:26:36;-1.60;99.90
27745;DHT22;61387;48.112;8.616;2023-03-01T07:29:03;-1.70;99.90
27745;DHT22;61387;48.112;8.616;2023-03-01T07:31:29;-1.70;99.90
27745;DHT22;61387;48.112;8.616;2023-03-01T07:36:21;-1.60;99.90
27745;DHT22;61387;48.112;8.616;2023-03-01T07:41:13;-1.60;99.90
27745;DHT22;61387;48.112;8.616;2023-03-01T07:43:38;-1.60;99.90
27745;DHT22;61387;48.112;8.616;2023-03-01T07:46:04;-1.60;99.90
27745;DHT22;61387;48.112;8.616;2023-03-01T07:48:31;-1.50;99.90
27745;DHT22;61387;48.112;8.616;2023-03-01T07:51:01;-1.50;99.90
27745;DHT22;61387;48.112;8.616;2023-03-01T07:53:27;-1.40;99.90
27745;DHT22;61387;48.112;8.616;2023-03-01T07:56:07;-1.50;99.90
27745;DHT22;61387;48.112;8.616;2023-03-01T07:58:38;-1.50;99.90
27745;DHT22;61387;48.112;8.616;2023-03-01T08:01:05;-1.50;99.90
27745;DHT22;61387;48.112;8.616;2023-03-01T08:03:31;-1.40;99.90
27745;DHT22;61387;48.112;8.616;2023-03-01T08:05:59;-1.30;99.90
27745;DHT22;61387;48.112;8.616;2023-03-01T08:08:25;-1.30;99.90
27745;DHT22;61387;48.112;8.616;2023-03-01T08:10:51;-1.30;99.90
27745;DHT22;61387;48.112;8.616;2023-03-01T08:15:48;-1.20;99.90
27745;DHT22;61387;48.112;8.616;2023-03-01T08:18:13;-1.20;99.90
27745;DHT22;61387;48.112;8.616;2023-03-01T08:20:39;-1.20;99.90
27745;DHT22;61387;48.112;8.616;2023-03-01T08:23:04;-1.10;99.90
27745;DHT22;61387;48.112;8.616;2023-03-01T08:30:21;-1.00;99.90
27745;DHT22;61387;48.112;8.616;2023-03-01T08:32:49;-1.00;99.90
27745;DHT22;61387;48.112;8.616;2023-03-01T08:35:15;-1.10;99.90
27745;DHT22;61387;48.112;8.616;2023-03-01T08:40:07;-1.00;99.90
27745;DHT22;61387;48.112;8.616;2023-03-01T08:45:01;-0.80;99.90
27745;DHT22;61387;48.112;8.616;2023-03-01T08:49:53;-0.80;99.90
27745;DHT22;61387;48.112;8.616;2023-03-01T08:52:19;-0.60;99.90
27745;DHT22;61387;48.112;8.616;2023-03-01T08:54:47;-0.70;99.90
27745;DHT22;61387;48.112;8.616;2023-03-01T08:57:13;-0.70;99.90
27745;DHT22;61387;48.112;8.616;2023-03-01T09:02:08;-0.70;99.90
27745;DHT22;61387;48.112;8.616;2023-03-01T09:04:35;-0.50;99.90
27745;DHT22;61387;48.112;8.616;2023-03-01T09:07:00;-0.40;99.90
27745;DHT22;61387;48.112;8.616;2023-03-01T09:09:26;-0.20;99.90
27745;DHT22;61387;48.112;8.616;2023-03-01T09:11:52;-0.20;99.90
27745;DHT22;61387;48.112;8.616;2023-03-01T09:14:17;-0.20;99.90
27745;DHT22;61387;48.112;8.616;2023-03-01T09:16:43;-0.10;99.90
27745;DHT22;61387;48.112;8.616;2023-03-01T09:19:08;-0.10;99.90
27745;DHT22;61387;48.112;8.616;2023-03-01T09:24:00;-0.10;99.90
27745;DHT22;61387;48.112;8.616;2023-03-01T09:26:25;-0.10;99.90
27745;DHT22;61387;48.112;8.616;2023-03-01T09:28:53;0.00;99.90
27745;DHT22;61387;48.112;8.616;2023-03-01T09:31:20;0.10;99.90
27745;DHT22;61387;48.112;8.616;2023-03-01T09:33:52;0.00;99.90
27745;DHT22;61387;48.112;8.616;2023-03-01T09:36:20;0.10;99.90
27745;DHT22;61387;48.112;8.616;2023-03-01T09:38:47;0.20;99.90
27745;DHT22;61387;48.112;8.616;2023-03-01T09:41:29;0.20;99.90
27745;DHT22;61387;48.112;8.616;2023-03-01T09:44:01;0.30;99.90
27745;DHT22;61387;48.112;8.616;2023-03-01T09:46:40;0.50;99.90
27745;DHT22;61387;48.112;8.616;2023-03-01T09:49:15;0.50;99.90
27745;DHT22;61387;48.112;8.616;2023-03-01T09:51:43;0.50;99.90
27745;DHT22;61387;48.112;8.616;2023-03-01T09:54:14;0.60;99.90
27745;DHT22;61387;48.112;8.616;2023-03-01T09:57:19;0.50;99.90
27745;DHT22;61387;48.112;8.616;2023-03-01T10:02:43;0.80;99.90
27745;DHT22;61387;48.112;8.616;2023-03-01T10:08:25;1.00;99.90
27745;DHT22;61387;48.112;8.616;2023-03-01T10:10:52;1.10;99.90
27745;DHT22;61387;48.112;8.616;2023-03-01T10:13:33;1.20;99.90
27745;DHT22;61387;48.112;8.616;2023-03-01T10:18:53;1.40;99.90
27745;DHT22;61387;48.112;8.616;2023-03-01T10:21:20;1.40;99.90
27745;DHT22;61387;48.112;8.616;2023-03-01T10:23:46;1.50;99.90
27745;DHT22;61387;48.112;8.616;2023-03-01T10:28:44;1.50;99.90
27745;DHT22;61387;48.112;8.616;2023-03-01T10:31:22;1.50;99.90
27745;DHT22;61387;48.112;8.616;2023-03-01T10:33:53;1.60;99.90
27745;DHT22;61387;48.112;8.616;2023-03-01T10:36:21;1.60;99.90
27745;DHT22;61387;48.112;8.616;2023-03-01T10:38:57;1.80;99.90
27745;DHT22;61387;48.112;8.616;2023-03-01T10:41:25;1.80;99.90
27745;DHT22;61387;48.112;8.616;2023-03-01T10:43:55;1.60;99.90
27745;DHT22;61387;48.112;8.616;2023-03-01T10:46:30;1.70;99.90
27745;DHT22;61387;48.112;8.616;2023-03-01T10:49:21;1.90;99.90
27745;DHT22;61387;48.112;8.616;2023-03-01T10:51:49;1.90;99.90
27745;DHT22;61387;48.112;8.616;2023-03-01T10:54:18;1.90;99.90
27745;DHT22;61387;48.112;8.616;2023-03-01T10:56:52;2.10;99.90
27745;DHT22;61387;48.112;8.616;2023-03-01T10:59:28;2.20;99.90
27745;DHT22;61387;48.112;8.616;2023-03-01T11:02:08;2.30;99.90
27745;DHT22;61387;48.112;8.616;2023-03-01T11:04:38;2.30;99.90
27745;DHT22;61387;48.112;8.616;2023-03-01T11:07:03;2.40;99.90
27745;DHT22;61387;48.112;8.616;2023-03-01T11:09:33;2.50;99.90
27745;DHT22;61387;48.112;8.616;2023-03-01T11:12:15;2.50;99.90
27745;DHT22;61387;48.112;8.616;2023-03-01T11:14:53;2.60;99.90
27745;DHT22;61387;48.112;8.616;2023-03-01T11:17:30;2.80;99.90
27745;DHT22;61387;48.112;8.616;2023-03-01T11:22:59;2.90;99.90
27745;DHT22;61387;48.112;8.616;2023-03-01T11:25:31;2.70;99.90
27745;DHT22;61387;48.112;8.616;2023-03-01T11:27:59;2.90;99.90
27745;DHT22;61387;48.112;8.616;2023-03-01T11:30:34;3.00;99.90
27745;DHT22;61387;48.112;8.616;2023-03-01T11:33:17;2.90;99.90
27745;DHT22;61387;48.112;8.616;2023-03-01T11:35:55;2.90;99.90
27745;DHT22;61387;48.112;8.616;2023-03-01T11:38:25;3.00;99.90
27745;DHT22;61387;48.112;8.616;2023-03-01T11:41:14;3.00;99.90
27745;DHT22;61387;48.112;8.616;2023-03-01T11:46:32;2.90;99.90
27745;DHT22;61387;48.112;8.616;2023-03-01T11:49:26;2.90;99.90
27745;DHT22;61387;48.112;8.616;2023-03-01T11:58:14;3.10;99.90
27745;DHT22;61387;48.112;8.616;2023-03-01T12:03:33;3.30;99.90
27745;DHT22;61387;48.112;8.616;2023-03-01T12:08:32;3.40;99.90
27745;DHT22;61387;48.112;8.616;2023-03-01T12:14:18;3.60;99.90
27745;DHT22;61387;48.112;8.616;2023-03-01T12:30:05;3.90;99.90
27745;DHT22;61387;48.112;8.616;2023-03-01T12:41:00;4.50;99.90
27745;DHT22;61387;48.112;8.616;2023-03-01T12:43:41;4.50;99.90
27745;DHT22;61387;48.112;8.616;2023-03-01T12:49:23;4.50;99.90
27745;DHT22;61387;48.112;8.616;2023-03-01T12:51:56;4.50;99.90
27745;DHT22;61387;48.112;8.616;2023-03-01T12:54:30;4.40;99.90
27745;DHT22;61387;48.112;8.616;2023-03-01T12:57:26;4.50;99.90
27745;DHT22;61387;48.112;8.616;2023-03-01T13:02:54;4.40;99.90
27745;DHT22;61387;48.112;8.616;2023-03-01T13:05:38;4.60;99.90
27745;DHT22;61387;48.112;8.616;2023-03-01T13:08:48;4.70;99.90
27745;DHT22;61387;48.112;8.616;2023-03-01T13:11:20;4.70;99.90
27745;DHT22;61387;48.112;8.616;2023-03-01T13:19:24;5.10;99.90
27745;DHT22;61387;48.112;8.616;2023-03-01T13:21:52;5.10;99.90
27745;DHT22;61387;48.112;8.616;2023-03-01T13:24:37;4.90;99.90
27745;DHT22;61387;48.112;8.616;2023-03-01T13:29:54;5.10;99.90
27745;DHT22;61387;48.112;8.616;2023-03-01T13:32:39;5.10;99.90
27745;DHT22;61387;48.112;8.616;2023-03-01T13:37:41;5.10;99.90
27745;DHT22;61387;48.112;8.616;2023-03-01T13:43:22;5.10;99.90
27745;DHT22;61387;48.112;8.616;2023-03-01T13:50:46;5.20;99.90
27745;DHT22;61387;48.112;8.616;2023-03-01T13:53:17;5.30;99.90
27745;DHT22;61387;48.112;8.616;2023-03-01T13:55:46;5.30;99.90
27745;DHT22;61387;48.112;8.616;2023-03-01T13:58:31;5.20;99.90
27745;DHT22;61387;48.112;8.616;2023-03-01T14:01:00;5.20;99.90
27745;DHT22;61387;48.112;8.616;2023-03-01T14:03:27;5.30;99.90
27745;DHT22;61387;48.112;8.616;2023-03-01T14:06:00;5.20;99.90
27745;DHT22;61387;48.112;8.616;2023-03-01T14:08:28;5.20;99.90
27745;DHT22;61387;48.112;8.616;2023-03-01T14:21:36;5.20;99.90
27745;DHT22;61387;48.112;8.616;2023-03-01T14:24:02;5.30;99.90
27745;DHT22;61387;48.112;8.616;2023-03-01T14:26:29;5.30;99.90
27745;DHT22;61387;48.112;8.616;2023-03-01T14:28:56;5.50;99.90
27745;DHT22;61387;48.112;8.616;2023-03-01T14:31:38;5.50;99.90
27745;DHT22;61387;48.112;8.616;2023-03-01T14:34:05;5.50;99.90
27745;DHT22;61387;48.112;8.616;2023-03-01T14:36:33;5.50;99.90
27745;DHT22;61387;48.112;8.616;2023-03-01T14:38:59;5.60;99.90
27745;DHT22;61387;48.112;8.616;2023-03-01T14:41:32;5.70;99.90
27745;DHT22;61387;48.112;8.616;2023-03-01T14:44:02;5.70;99.90
27745;DHT22;61387;48.112;8.616;2023-03-01T14:46:38;5.80;99.90
27745;DHT22;61387;48.112;8.616;2023-03-01T14:49:21;6.00;99.90
27745;DHT22;61387;48.112;8.616;2023-03-01T14:54:52;6.10;99.90
27745;DHT22;61387;48.112;8.616;2023-03-01T14:57:21;6.00;99.90
27745;DHT22;61387;48.112;8.616;2023-03-01T14:59:54;6.00;99.90
27745;DHT22;61387;48.112;8.616;2023-03-01T15:02:28;6.00;99.90
27745;DHT22;61387;48.112;8.616;2023-03-01T15:04:57;6.00;99.90
27745;DHT22;61387;48.112;8.616;2023-03-01T15:07:28;6.00;99.90
27745;DHT22;61387;48.112;8.616;2023-03-01T15:09:55;5.90;99.90
27745;DHT22;61387;48.112;8.616;2023-03-01T15:12:42;6.00;99.90
27745;DHT22;61387;48.112;8.616;2023-03-01T15:17:56;6.10;99.90
27745;DHT22;61387;48.112;8.616;2023-03-01T15:20:25;6.00;99.90
27745;DHT22;61387;48.112;8.616;2023-03-01T15:22:53;6.10;99.90
27745;DHT22;61387;48.112;8.616;2023-03-01T15:25:23;6.10;99.90
27745;DHT22;61387;48.112;8.616;2023-03-01T15:27:51;6.00;99.90
27745;DHT22;61387;48.112;8.616;2023-03-01T15:30:20;6.20;99.90
27745;DHT22;61387;48.112;8.616;2023-03-01T15:32:47;6.30;99.90
27745;DHT22;61387;48.112;8.616;2023-03-01T15:35:38;6.40;99.90
27745;DHT22;61387;48.112;8.616;2023-03-01T15:38:22;6.20;99.90
27745;DHT22;61387;48.112;8.616;2023-03-01T15:40:51;6.20;99.90
27745;DHT22;61387;48.112;8.616;2023-03-01T15:43:37;6.10;99.90
27745;DHT22;61387;48.112;8.616;2023-03-01T15:46:03;6.00;99.90
27745;DHT22;61387;48.112;8.616;2023-03-01T15:48:29;5.90;99.90
27745;DHT22;61387;48.112;8.616;2023-03-01T15:50:57;5.90;99.90
27745;DHT22;61387;48.112;8.616;2023-03-01T15:55:49;5.80;99.90
27745;DHT22;61387;48.112;8.616;2023-03-01T15:58:21;5.80;99.90
27745;DHT22;61387;48.112;8.616;2023-03-01T16:00:48;5.70;99.90
27745;DHT22;61387;48.112;8.616;2023-03-01T16:05:47;5.70;99.90
27745;DHT22;61387;48.112;8.616;2023-03-01T16:08:13;5.60;99.90
27745;DHT22;61387;48.112;8.616;2023-03-01T16:10:40;5.60;99.90
27745;DHT22;61387;48.112;8.616;2023-03-01T16:13:05;5.60;99.90
27745;DHT22;61387;48.112;8.616;2023-03-01T16:15:33;5.70;99.90
27745;DHT22;61387;48.112;8.616;2023-03-01T16:18:00;5.70;99.90
27745;DHT22;61387;48.112;8.616;2023-03-01T16:20:26;5.70;99.90
27745;DHT22;61387;48.112;8.616;2023-03-01T16:22:52;5.70;99.90
27745;DHT22;61387;48.112;8.616;2023-03-01T16:25:20;5.70;99.90
27745;DHT22;61387;48.112;8.616;2023-03-01T16:27:48;5.70;99.90
27745;DHT22;61387;48.112;8.616;2023-03-01T16:30:16;5.70;99.90
27745;DHT22;61387;48.112;8.616;2023-03-01T16:32:43;5.70;99.90
27745;DHT22;61387;48.112;8.616;2023-03-01T16:35:11;5.50;99.90
27745;DHT22;61387;48.112;8.616;2023-03-01T16:37:37;5.50;99.90
27745;DHT22;61387;48.112;8.616;2023-03-01T16:40:05;5.30;99.90
27745;DHT22;61387;48.112;8.616;2023-03-01T16:42:36;5.30;99.90
27745;DHT22;61387;48.112;8.616;2023-03-01T16:45:02;5.20;99.90
27745;DHT22;61387;48.112;8.616;2023-03-01T16:47:28;4.90;99.90
27745;DHT22;61387;48.112;8.616;2023-03-01T16:49:54;4.90;99.90
27745;DHT22;61387;48.112;8.616;2023-03-01T16:52:21;4.80;99.90
27745;DHT22;61387;48.112;8.616;2023-03-01T16:57:13;4.50;99.90
27745;DHT22;61387;48.112;8.616;2023-03-01T16:59:39;4.30;99.90
27745;DHT22;61387;48.112;8.616;2023-03-01T17:04:32;4.10;99.90
27745;DHT22;61387;48.112;8.616;2023-03-01T17:09:23;3.50;99.90
27745;DHT22;61387;48.112;8.616;2023-03-01T17:11:49;3.90;99.90
27745;DHT22;61387;48.112;8.616;2023-03-01T17:14:15;3.20;99.90
27745;DHT22;61387;48.112;8.616;2023-03-01T17:16:42;2.90;99.90
27745;DHT22;61387;48.112;8.616;2023-03-01T17:19:07;2.60;99.90
27745;DHT22;61387;48.112;8.616;2023-03-01T17:21:33;2.60;99.90
27745;DHT22;61387;48.112;8.616;2023-03-01T17:28:51;2.10;99.90
27745;DHT22;61387;48.112;8.616;2023-03-01T17:31:18;2.00;99.90
27745;DHT22;61387;48.112;8.616;2023-03-01T17:33:44;1.90;99.90
27745;DHT22;61387;48.112;8.616;2023-03-01T17:36:10;1.80;99.90
27745;DHT22;61387;48.112;8.616;2023-03-01T17:38:35;1.60;99.90
27745;DHT22;61387;48.112;8.616;2023-03-01T17:41:11;1.60;99.90
27745;DHT22;61387;48.112;8.616;2023-03-01T17:44:07;1.50;99.90
27745;DHT22;61387;48.112;8.616;2023-03-01T17:46:43;1.50;99.90
27745;DHT22;61387;48.112;8.616;2023-03-01T17:52:17;1.30;99.90
27745;DHT22;61387;48.112;8.616;2023-03-01T17:54:42;1.30;99.90
27745;DHT22;61387;48.112;8.616;2023-03-01T17:57:08;1.20;99.90
27745;DHT22;61387;48.112;8.616;2023-03-01T17:59:36;1.20;99.90
27745;DHT22;61387;48.112;8.616;2023-03-01T18:02:02;1.20;99.90
27745;DHT22;61387;48.112;8.616;2023-03-01T18:04:28;1.20;99.90
27745;DHT22;61387;48.112;8.616;2023-03-01T18:06:54;1.30;99.90
27745;DHT22;61387;48.112;8.616;2023-03-01T18:09:20;1.30;99.90
27745;DHT22;61387;48.112;8.616;2023-03-01T18:11:46;1.30;99.90
27745;DHT22;61387;48.112;8.616;2023-03-01T18:14:12;1.40;99.90
27745;DHT22;61387;48.112;8.616;2023-03-01T18:16:37;1.50;99.90
27745;DHT22;61387;48.112;8.616;2023-03-01T18:23:56;1.70;99.90
27745;DHT22;61387;48.112;8.616;2023-03-01T18:31:21;1.80;99.90
27745;DHT22;61387;48.112;8.616;2023-03-01T18:36:24;1.80;99.90
27745;DHT22;61387;48.112;8.616;2023-03-01T18:38:51;1.80;99.90
27745;DHT22;61387;48.112;8.616;2023-03-01T18:43:44;1.70;99.90
27745;DHT22;61387;48.112;8.616;2023-03-01T18:46:10;1.70;99.90
27745;DHT22;61387;48.112;8.616;2023-03-01T18:48:36;1.70;99.90
27745;DHT22;61387;48.112;8.616;2023-03-01T18:51:10;1.70;99.90
27745;DHT22;61387;48.112;8.616;2023-03-01T18:53:36;1.70;99.90
27745;DHT22;61387;48.112;8.616;2023-03-01T18:56:02;1.70;99.90
27745;DHT22;61387;48.112;8.616;2023-03-01T19:03:19;1.70;99.90
27745;DHT22;61387;48.112;8.616;2023-03-01T19:05:45;1.70;99.90
27745;DHT22;61387;48.112;8.616;2023-03-01T19:08:10;1.80;99.90
27745;DHT22;61387;48.112;8.616;2023-03-01T19:10:36;1.80;99.90
27745;DHT22;61387;48.112;8.616;2023-03-01T19:20:21;1.90;99.90
27745;DHT22;61387;48.112;8.616;2023-03-01T19:22:47;1.90;99.90
27745;DHT22;61387;48.112;8.616;2023-03-01T19:30:05;2.00;99.90
27745;DHT22;61387;48.112;8.616;2023-03-01T19:39:49;2.00;99.90
27745;DHT22;61387;48.112;8.616;2023-03-01T19:42:14;2.00;99.90
27745;DHT22;61387;48.112;8.616;2023-03-01T19:44:40;2.00;99.90
27745;DHT22;61387;48.112;8.616;2023-03-01T19:49:31;2.00;99.90
27745;DHT22;61387;48.112;8.616;2023-03-01T19:51:57;2.00;99.90
27745;DHT22;61387;48.112;8.616;2023-03-01T19:54:22;2.00;99.90
27745;DHT22;61387;48.112;8.616;2023-03-01T19:56:49;2.00;99.90
27745;DHT22;61387;48.112;8.616;2023-03-01T19:59:16;2.00;99.90
27745;DHT22;61387;48.112;8.616;2023-03-01T20:01:48;2.00;99.90
27745;DHT22;61387;48.112;8.616;2023-03-01T20:06:40;2.00;99.90
27745;DHT22;61387;48.112;8.616;2023-03-01T20:09:06;2.00;99.90